Terminal Aerodrome Forecast
Issued by NWS

Home | Current Version | Previous Version | Graphics & Text | Print | Product List | Glossary On
Versions: 1 2 3 4 5 6 7 8 9 10 11 12 13 14 15 16
367
FTUS43 KOAX 171754 CCA
TAFCDR
TAF COR
KCDR 171754Z 1718/1818 VRB05KT P6SM BKN080
     FM180000 36009KT P6SM VCSH OVC060
     FM180200 35011KT 5SM -SN OVC015
     FM180400 34011KT 5SM -SN BKN025
     FM180600 31010KT P6SM BKN035
     FM181200 29009KT P6SM SKC=

USA.gov is the U.S. government's official web portal to all federal, state and local government web resources and services.